sensor_id;sensor_type;location;lat;lon;timestamp;P1;durP1;ratioP1;P2;durP2;ratioP2
6013;SDS011;3035;49.928;8.410;2023-04-29T00:01:17;7.20;;;6.50;;
6013;SDS011;3035;49.928;8.410;2023-04-29T00:03:45;6.43;;;5.83;;
6013;SDS011;3035;49.928;8.410;2023-04-29T00:06:14;6.73;;;5.80;;
6013;SDS011;3035;49.928;8.410;2023-04-29T00:08:42;10.67;;;5.17;;
6013;SDS011;3035;49.928;8.410;2023-04-29T00:11:10;7.47;;;5.43;;
6013;SDS011;3035;49.928;8.410;2023-04-29T00:13:38;6.40;;;4.97;;
6013;SDS011;3035;49.928;8.410;2023-04-29T00:16:07;6.30;;;5.23;;
6013;SDS011;3035;49.928;8.410;2023-04-29T00:18:35;10.80;;;4.87;;
6013;SDS011;3035;49.928;8.410;2023-04-29T00:21:04;7.03;;;5.27;;
6013;SDS011;3035;49.928;8.410;2023-04-29T00:23:32;4.17;;;3.67;;
6013;SDS011;3035;49.928;8.410;2023-04-29T00:26:00;5.73;;;4.53;;
6013;SDS011;3035;49.928;8.410;2023-04-29T00:28:29;4.80;;;4.10;;
6013;SDS011;3035;49.928;8.410;2023-04-29T00:30:58;4.07;;;3.77;;
6013;SDS011;3035;49.928;8.410;2023-04-29T00:33:26;7.50;;;4.33;;
6013;SDS011;3035;49.928;8.410;2023-04-29T00:35:55;4.53;;;4.13;;
6013;SDS011;3035;49.928;8.410;2023-04-29T00:38:23;6.27;;;4.90;;
6013;SDS011;3035;49.928;8.410;2023-04-29T00:40:51;8.23;;;5.10;;
6013;SDS011;3035;49.928;8.410;2023-04-29T00:43:19;8.03;;;4.77;;
6013;SDS011;3035;49.928;8.410;2023-04-29T00:45:47;7.40;;;5.40;;
6013;SDS011;3035;49.928;8.410;2023-04-29T00:48:16;4.70;;;4.30;;
6013;SDS011;3035;49.928;8.410;2023-04-29T00:50:45;5.73;;;4.47;;
6013;SDS011;3035;49.928;8.410;2023-04-29T00:53:13;6.30;;;4.57;;
6013;SDS011;3035;49.928;8.410;2023-04-29T00:55:43;6.07;;;4.57;;
6013;SDS011;3035;49.928;8.410;2023-04-29T00:58:12;6.07;;;4.13;;
6013;SDS011;3035;49.928;8.410;2023-04-29T01:00:41;4.93;;;4.43;;
6013;SDS011;3035;49.928;8.410;2023-04-29T01:03:10;5.00;;;4.50;;
6013;SDS011;3035;49.928;8.410;2023-04-29T01:05:38;5.63;;;3.70;;
6013;SDS011;3035;49.928;8.410;2023-04-29T01:08:12;7.30;;;5.07;;
6013;SDS011;3035;49.928;8.410;2023-04-29T01:11:07;7.83;;;4.93;;
6013;SDS011;3035;49.928;8.410;2023-04-29T01:13:38;8.73;;;5.20;;
6013;SDS011;3035;49.928;8.410;2023-04-29T01:16:18;6.90;;;5.10;;
6013;SDS011;3035;49.928;8.410;2023-04-29T01:18:48;7.17;;;4.53;;
6013;SDS011;3035;49.928;8.410;2023-04-29T01:21:17;5.57;;;4.73;;
6013;SDS011;3035;49.928;8.410;2023-04-29T01:23:45;5.20;;;4.50;;
6013;SDS011;3035;49.928;8.410;2023-04-29T01:26:14;4.93;;;3.70;;
6013;SDS011;3035;49.928;8.410;2023-04-29T01:28:53;4.90;;;4.10;;
6013;SDS011;3035;49.928;8.410;2023-04-29T01:31:30;8.80;;;4.33;;
6013;SDS011;3035;49.928;8.410;2023-04-29T01:34:17;4.27;;;3.90;;
6013;SDS011;3035;49.928;8.410;2023-04-29T01:36:52;7.20;;;4.60;;
6013;SDS011;3035;49.928;8.410;2023-04-29T01:39:44;7.20;;;4.30;;
6013;SDS011;3035;49.928;8.410;2023-04-29T01:44:59;4.47;;;3.47;;
6013;SDS011;3035;49.928;8.410;2023-04-29T01:47:27;5.63;;;4.07;;
6013;SDS011;3035;49.928;8.410;2023-04-29T01:49:56;4.00;;;3.70;;
6013;SDS011;3035;49.928;8.410;2023-04-29T01:52:24;5.70;;;3.70;;
6013;SDS011;3035;49.928;8.410;2023-04-29T01:54:53;7.17;;;5.07;;
6013;SDS011;3035;49.928;8.410;2023-04-29T01:57:21;11.83;;;4.77;;
6013;SDS011;3035;49.928;8.410;2023-04-29T01:59:49;11.90;;;4.53;;
6013;SDS011;3035;49.928;8.410;2023-04-29T02:02:18;5.57;;;4.37;;
6013;SDS011;3035;49.928;8.410;2023-04-29T02:04:47;7.97;;;3.70;;
6013;SDS011;3035;49.928;8.410;2023-04-29T02:07:16;3.83;;;3.47;;
6013;SDS011;3035;49.928;8.410;2023-04-29T02:09:44;4.27;;;3.53;;
6013;SDS011;3035;49.928;8.410;2023-04-29T02:12:13;3.50;;;3.20;;
6013;SDS011;3035;49.928;8.410;2023-04-29T02:14:41;4.33;;;3.13;;
6013;SDS011;3035;49.928;8.410;2023-04-29T02:17:09;3.00;;;2.80;;
6013;SDS011;3035;49.928;8.410;2023-04-29T02:19:37;8.83;;;2.97;;
6013;SDS011;3035;49.928;8.410;2023-04-29T02:22:05;4.17;;;3.40;;
6013;SDS011;3035;49.928;8.410;2023-04-29T02:24:34;3.80;;;3.50;;
6013;SDS011;3035;49.928;8.410;2023-04-29T02:27:03;6.33;;;3.37;;
6013;SDS011;3035;49.928;8.410;2023-04-29T02:29:32;4.80;;;3.80;;
6013;SDS011;3035;49.928;8.410;2023-04-29T02:32:00;3.70;;;3.40;;
6013;SDS011;3035;49.928;8.410;2023-04-29T02:34:28;10.13;;;3.40;;
6013;SDS011;3035;49.928;8.410;2023-04-29T02:36:57;3.90;;;3.50;;
6013;SDS011;3035;49.928;8.410;2023-04-29T02:39:26;7.17;;;3.33;;
6013;SDS011;3035;49.928;8.410;2023-04-29T02:41:55;3.53;;;3.17;;
6013;SDS011;3035;49.928;8.410;2023-04-29T02:44:24;3.80;;;2.80;;
6013;SDS011;3035;49.928;8.410;2023-04-29T02:46:52;7.03;;;3.70;;
6013;SDS011;3035;49.928;8.410;2023-04-29T02:49:20;3.20;;;2.90;;
6013;SDS011;3035;49.928;8.410;2023-04-29T02:51:49;9.00;;;3.23;;
6013;SDS011;3035;49.928;8.410;2023-04-29T02:54:18;3.23;;;2.97;;
6013;SDS011;3035;49.928;8.410;2023-04-29T02:56:47;8.30;;;3.10;;
6013;SDS011;3035;49.928;8.410;2023-04-29T02:59:15;2.80;;;2.60;;
6013;SDS011;3035;49.928;8.410;2023-04-29T03:01:43;9.53;;;2.30;;
6013;SDS011;3035;49.928;8.410;2023-04-29T03:04:11;2.70;;;2.50;;
6013;SDS011;3035;49.928;8.410;2023-04-29T03:06:39;4.40;;;2.37;;
6013;SDS011;3035;49.928;8.410;2023-04-29T03:09:08;2.53;;;2.30;;
6013;SDS011;3035;49.928;8.410;2023-04-29T03:11:36;3.90;;;2.40;;
6013;SDS011;3035;49.928;8.410;2023-04-29T03:14:04;2.50;;;2.30;;
6013;SDS011;3035;49.928;8.410;2023-04-29T03:16:33;5.00;;;2.37;;
6013;SDS011;3035;49.928;8.410;2023-04-29T03:19:01;2.00;;;1.90;;
6013;SDS011;3035;49.928;8.410;2023-04-29T03:21:30;8.83;;;2.40;;
6013;SDS011;3035;49.928;8.410;2023-04-29T03:23:58;2.00;;;1.90;;
6013;SDS011;3035;49.928;8.410;2023-04-29T03:26:26;3.07;;;2.10;;
6013;SDS011;3035;49.928;8.410;2023-04-29T03:28:54;2.03;;;1.83;;
6013;SDS011;3035;49.928;8.410;2023-04-29T03:31:22;2.43;;;2.23;;
6013;SDS011;3035;49.928;8.410;2023-04-29T03:33:51;3.27;;;2.27;;
6013;SDS011;3035;49.928;8.410;2023-04-29T03:36:19;4.43;;;2.07;;
6013;SDS011;3035;49.928;8.410;2023-04-29T03:38:48;2.30;;;2.10;;
6013;SDS011;3035;49.928;8.410;2023-04-29T03:41:16;2.23;;;2.03;;
6013;SDS011;3035;49.928;8.410;2023-04-29T03:43:45;1.73;;;1.63;;
6013;SDS011;3035;49.928;8.410;2023-04-29T03:46:13;12.33;;;2.07;;
6013;SDS011;3035;49.928;8.410;2023-04-29T03:48:42;1.90;;;1.80;;
6013;SDS011;3035;49.928;8.410;2023-04-29T03:51:10;1.80;;;1.70;;
6013;SDS011;3035;49.928;8.410;2023-04-29T03:53:38;3.37;;;2.00;;
6013;SDS011;3035;49.928;8.410;2023-04-29T03:56:07;2.00;;;1.90;;
6013;SDS011;3035;49.928;8.410;2023-04-29T03:58:36;2.90;;;2.40;;
6013;SDS011;3035;49.928;8.410;2023-04-29T04:01:05;3.37;;;2.10;;
6013;SDS011;3035;49.928;8.410;2023-04-29T04:03:34;3.73;;;2.90;;
6013;SDS011;3035;49.928;8.410;2023-04-29T04:06:02;3.80;;;3.43;;
6013;SDS011;3035;49.928;8.410;2023-04-29T04:08:31;5.43;;;3.80;;
6013;SDS011;3035;49.928;8.410;2023-04-29T04:10:59;4.00;;;3.60;;
6013;SDS011;3035;49.928;8.410;2023-04-29T04:13:30;9.60;;;4.40;;
6013;SDS011;3035;49.928;8.410;2023-04-29T04:15:58;6.20;;;4.63;;
6013;SDS011;3035;49.928;8.410;2023-04-29T04:18:27;7.93;;;4.87;;
6013;SDS011;3035;49.928;8.410;2023-04-29T04:20:55;6.47;;;5.80;;
6013;SDS011;3035;49.928;8.410;2023-04-29T04:23:24;10.17;;;5.63;;
6013;SDS011;3035;49.928;8.410;2023-04-29T04:25:53;5.83;;;5.23;;
6013;SDS011;3035;49.928;8.410;2023-04-29T04:28:21;6.53;;;5.80;;
6013;SDS011;3035;49.928;8.410;2023-04-29T04:30:50;11.73;;;5.83;;
6013;SDS011;3035;49.928;8.410;2023-04-29T04:33:18;9.60;;;5.87;;
6013;SDS011;3035;49.928;8.410;2023-04-29T04:35:47;9.10;;;6.53;;
6013;SDS011;3035;49.928;8.410;2023-04-29T04:38:15;8.30;;;6.60;;
6013;SDS011;3035;49.928;8.410;2023-04-29T04:40:43;9.13;;;6.43;;
6013;SDS011;3035;49.928;8.410;2023-04-29T04:43:13;8.50;;;7.60;;
6013;SDS011;3035;49.928;8.410;2023-04-29T04:45:41;12.20;;;7.57;;
6013;SDS011;3035;49.928;8.410;2023-04-29T04:48:10;13.50;;;8.07;;
6013;SDS011;3035;49.928;8.410;2023-04-29T04:50:38;10.63;;;8.93;;
6013;SDS011;3035;49.928;8.410;2023-04-29T04:53:07;12.20;;;9.57;;
6013;SDS011;3035;49.928;8.410;2023-04-29T04:55:36;12.80;;;9.30;;
6013;SDS011;3035;49.928;8.410;2023-04-29T04:58:04;12.67;;;9.87;;
6013;SDS011;3035;49.928;8.410;2023-04-29T05:00:33;12.80;;;9.07;;
6013;SDS011;3035;49.928;8.410;2023-04-29T05:03:02;15.00;;;10.20;;
6013;SDS011;3035;49.928;8.410;2023-04-29T05:05:32;13.00;;;10.33;;
6013;SDS011;3035;49.928;8.410;2023-04-29T05:07:59;16.60;;;11.37;;
6013;SDS011;3035;49.928;8.410;2023-04-29T05:10:27;16.30;;;11.53;;
6013;SDS011;3035;49.928;8.410;2023-04-29T05:12:55;13.77;;;10.50;;
6013;SDS011;3035;49.928;8.410;2023-04-29T05:15:24;17.73;;;11.97;;
6013;SDS011;3035;49.928;8.410;2023-04-29T05:17:52;18.93;;;12.57;;
6013;SDS011;3035;49.928;8.410;2023-04-29T05:20:21;13.67;;;10.33;;
6013;SDS011;3035;49.928;8.410;2023-04-29T05:22:49;17.30;;;11.77;;
6013;SDS011;3035;49.928;8.410;2023-04-29T05:25:17;16.30;;;11.20;;
6013;SDS011;3035;49.928;8.410;2023-04-29T05:27:45;18.83;;;12.70;;
6013;SDS011;3035;49.928;8.410;2023-04-29T05:30:14;17.47;;;11.97;;
6013;SDS011;3035;49.928;8.410;2023-04-29T05:32:42;15.60;;;11.23;;
6013;SDS011;3035;49.928;8.410;2023-04-29T05:35:13;17.87;;;12.20;;
6013;SDS011;3035;49.928;8.410;2023-04-29T05:37:42;20.23;;;11.40;;
6013;SDS011;3035;49.928;8.410;2023-04-29T05:40:10;15.97;;;11.40;;
6013;SDS011;3035;49.928;8.410;2023-04-29T05:42:39;15.50;;;11.87;;
6013;SDS011;3035;49.928;8.410;2023-04-29T05:45:08;17.43;;;10.73;;
6013;SDS011;3035;49.928;8.410;2023-04-29T05:47:36;15.10;;;11.33;;
6013;SDS011;3035;49.928;8.410;2023-04-29T05:50:05;15.10;;;10.70;;
6013;SDS011;3035;49.928;8.410;2023-04-29T05:52:34;18.03;;;11.60;;
6013;SDS011;3035;49.928;8.410;2023-04-29T05:55:02;15.27;;;10.63;;
6013;SDS011;3035;49.928;8.410;2023-04-29T05:57:31;19.20;;;11.47;;
6013;SDS011;3035;49.928;8.410;2023-04-29T06:00:00;16.13;;;10.53;;
6013;SDS011;3035;49.928;8.410;2023-04-29T06:02:29;17.00;;;9.23;;
6013;SDS011;3035;49.928;8.410;2023-04-29T06:04:58;12.20;;;8.93;;
6013;SDS011;3035;49.928;8.410;2023-04-29T06:07:26;13.30;;;9.07;;
6013;SDS011;3035;49.928;8.410;2023-04-29T06:09:55;11.37;;;9.07;;
6013;SDS011;3035;49.928;8.410;2023-04-29T06:12:24;10.00;;;7.30;;
6013;SDS011;3035;49.928;8.410;2023-04-29T06:14:53;12.70;;;7.37;;
6013;SDS011;3035;49.928;8.410;2023-04-29T06:17:22;12.50;;;7.10;;
6013;SDS011;3035;49.928;8.410;2023-04-29T06:19:51;10.30;;;7.77;;
6013;SDS011;3035;49.928;8.410;2023-04-29T06:22:19;13.53;;;7.53;;
6013;SDS011;3035;49.928;8.410;2023-04-29T06:24:48;20.40;;;7.23;;
6013;SDS011;3035;49.928;8.410;2023-04-29T06:27:16;11.40;;;8.07;;
6013;SDS011;3035;49.928;8.410;2023-04-29T06:29:44;14.33;;;7.13;;
6013;SDS011;3035;49.928;8.410;2023-04-29T06:32:13;13.43;;;6.77;;
6013;SDS011;3035;49.928;8.410;2023-04-29T06:34:41;13.47;;;7.03;;
6013;SDS011;3035;49.928;8.410;2023-04-29T06:37:10;8.70;;;6.00;;
6013;SDS011;3035;49.928;8.410;2023-04-29T06:39:38;8.20;;;5.40;;
6013;SDS011;3035;49.928;8.410;2023-04-29T06:42:06;7.40;;;5.47;;
6013;SDS011;3035;49.928;8.410;2023-04-29T06:44:36;7.37;;;5.10;;
6013;SDS011;3035;49.928;8.410;2023-04-29T06:47:04;8.73;;;5.80;;
6013;SDS011;3035;49.928;8.410;2023-04-29T06:49:33;8.40;;;6.00;;
6013;SDS011;3035;49.928;8.410;2023-04-29T06:52:01;9.43;;;6.20;;
6013;SDS011;3035;49.928;8.410;2023-04-29T06:54:29;4.93;;;4.13;;
6013;SDS011;3035;49.928;8.410;2023-04-29T06:56:57;10.57;;;4.87;;
6013;SDS011;3035;49.928;8.410;2023-04-29T06:59:25;8.30;;;5.40;;
6013;SDS011;3035;49.928;8.410;2023-04-29T07:01:53;6.40;;;4.70;;
6013;SDS011;3035;49.928;8.410;2023-04-29T07:04:22;6.73;;;4.57;;
6013;SDS011;3035;49.928;8.410;2023-04-29T07:06:51;8.47;;;4.90;;
6013;SDS011;3035;49.928;8.410;2023-04-29T07:09:19;7.97;;;5.20;;
6013;SDS011;3035;49.928;8.410;2023-04-29T07:11:47;8.63;;;5.40;;
6013;SDS011;3035;49.928;8.410;2023-04-29T07:14:15;7.10;;;4.60;;
6013;SDS011;3035;49.928;8.410;2023-04-29T07:16:43;7.90;;;5.10;;
6013;SDS011;3035;49.928;8.410;2023-04-29T07:19:13;6.90;;;5.33;;
6013;SDS011;3035;49.928;8.410;2023-04-29T07:21:42;8.77;;;5.60;;
6013;SDS011;3035;49.928;8.410;2023-04-29T07:24:10;7.20;;;4.97;;
6013;SDS011;3035;49.928;8.410;2023-04-29T07:26:39;8.00;;;5.47;;
6013;SDS011;3035;49.928;8.410;2023-04-29T07:29:07;8.80;;;5.50;;
6013;SDS011;3035;49.928;8.410;2023-04-29T07:31:36;6.93;;;4.60;;
6013;SDS011;3035;49.928;8.410;2023-04-29T07:34:04;13.07;;;5.80;;
6013;SDS011;3035;49.928;8.410;2023-04-29T07:36:33;8.83;;;5.30;;
6013;SDS011;3035;49.928;8.410;2023-04-29T07:39:02;8.47;;;5.60;;
6013;SDS011;3035;49.928;8.410;2023-04-29T07:41:31;14.10;;;5.60;;
6013;SDS011;3035;49.928;8.410;2023-04-29T07:43:59;14.23;;;5.23;;
6013;SDS011;3035;49.928;8.410;2023-04-29T07:46:27;6.90;;;5.77;;
6013;SDS011;3035;49.928;8.410;2023-04-29T07:48:56;8.17;;;5.60;;
6013;SDS011;3035;49.928;8.410;2023-04-29T07:51:24;10.40;;;5.93;;
6013;SDS011;3035;49.928;8.410;2023-04-29T07:53:52;7.00;;;5.40;;
6013;SDS011;3035;49.928;8.410;2023-04-29T07:56:21;8.03;;;5.50;;
6013;SDS011;3035;49.928;8.410;2023-04-29T07:58:50;7.23;;;5.57;;
6013;SDS011;3035;49.928;8.410;2023-04-29T08:01:19;7.50;;;5.43;;
6013;SDS011;3035;49.928;8.410;2023-04-29T08:03:47;6.77;;;5.80;;
6013;SDS011;3035;49.928;8.410;2023-04-29T08:06:16;8.43;;;5.70;;
6013;SDS011;3035;49.928;8.410;2023-04-29T08:08:44;8.23;;;6.87;;
6013;SDS011;3035;49.928;8.410;2023-04-29T08:11:16;13.83;;;5.80;;
6013;SDS011;3035;49.928;8.410;2023-04-29T08:13:45;22.47;;;7.17;;
6013;SDS011;3035;49.928;8.410;2023-04-29T08:16:14;13.93;;;6.23;;
6013;SDS011;3035;49.928;8.410;2023-04-29T08:18:42;11.47;;;6.30;;
6013;SDS011;3035;49.928;8.410;2023-04-29T08:21:10;11.17;;;6.03;;
6013;SDS011;3035;49.928;8.410;2023-04-29T08:23:38;8.67;;;5.77;;
6013;SDS011;3035;49.928;8.410;2023-04-29T08:26:08;9.47;;;6.43;;
6013;SDS011;3035;49.928;8.410;2023-04-29T08:28:35;9.40;;;6.40;;
6013;SDS011;3035;49.928;8.410;2023-04-29T08:31:04;12.73;;;7.43;;
6013;SDS011;3035;49.928;8.410;2023-04-29T08:33:33;7.83;;;6.33;;
6013;SDS011;3035;49.928;8.410;2023-04-29T08:36:02;8.53;;;5.97;;
6013;SDS011;3035;49.928;8.410;2023-04-29T08:38:31;8.27;;;6.60;;
6013;SDS011;3035;49.928;8.410;2023-04-29T08:40:59;9.90;;;6.60;;
6013;SDS011;3035;49.928;8.410;2023-04-29T08:43:27;7.30;;;5.60;;
6013;SDS011;3035;49.928;8.410;2023-04-29T08:45:57;8.70;;;5.70;;
6013;SDS011;3035;49.928;8.410;2023-04-29T08:48:24;16.60;;;5.90;;
6013;SDS011;3035;49.928;8.410;2023-04-29T08:50:53;7.93;;;6.00;;
6013;SDS011;3035;49.928;8.410;2023-04-29T08:53:22;9.00;;;6.03;;
6013;SDS011;3035;49.928;8.410;2023-04-29T08:55:50;9.50;;;5.83;;
6013;SDS011;3035;49.928;8.410;2023-04-29T08:58:19;10.50;;;6.37;;
6013;SDS011;3035;49.928;8.410;2023-04-29T09:00:48;9.60;;;5.00;;
6013;SDS011;3035;49.928;8.410;2023-04-29T09:03:18;8.17;;;5.57;;
6013;SDS011;3035;49.928;8.410;2023-04-29T09:05:47;7.70;;;5.70;;
6013;SDS011;3035;49.928;8.410;2023-04-29T09:08:15;6.50;;;4.90;;
6013;SDS011;3035;49.928;8.410;2023-04-29T09:10:43;8.53;;;6.17;;
6013;SDS011;3035;49.928;8.410;2023-04-29T09:13:26;8.70;;;5.17;;
6013;SDS011;3035;49.928;8.410;2023-04-29T09:15:55;11.50;;;5.97;;
6013;SDS011;3035;49.928;8.410;2023-04-29T09:21:13;12.20;;;5.60;;
6013;SDS011;3035;49.928;8.410;2023-04-29T09:23:45;12.00;;;5.93;;
6013;SDS011;3035;49.928;8.410;2023-04-29T09:26:13;7.90;;;4.83;;
6013;SDS011;3035;49.928;8.410;2023-04-29T09:28:42;8.13;;;5.50;;
6013;SDS011;3035;49.928;8.410;2023-04-29T09:31:11;8.83;;;5.30;;
6013;SDS011;3035;49.928;8.410;2023-04-29T09:36:33;10.87;;;5.77;;
6013;SDS011;3035;49.928;8.410;2023-04-29T09:38:57;7.33;;;5.40;;
6013;SDS011;3035;49.928;8.410;2023-04-29T09:41:26;7.83;;;5.43;;
6013;SDS011;3035;49.928;8.410;2023-04-29T09:44:01;9.40;;;5.50;;
6013;SDS011;3035;49.928;8.410;2023-04-29T09:46:32;12.07;;;6.20;;
6013;SDS011;3035;49.928;8.410;2023-04-29T09:49:00;10.87;;;6.00;;
6013;SDS011;3035;49.928;8.410;2023-04-29T09:51:28;7.57;;;6.00;;
6013;SDS011;3035;49.928;8.410;2023-04-29T09:53:59;8.50;;;6.00;;
6013;SDS011;3035;49.928;8.410;2023-04-29T09:56:26;8.07;;;5.70;;
6013;SDS011;3035;49.928;8.410;2023-04-29T09:58:55;7.30;;;5.00;;
6013;SDS011;3035;49.928;8.410;2023-04-29T10:01:24;7.50;;;5.27;;
6013;SDS011;3035;49.928;8.410;2023-04-29T10:03:53;6.03;;;5.10;;
6013;SDS011;3035;49.928;8.410;2023-04-29T10:06:23;9.33;;;6.40;;
6013;SDS011;3035;49.928;8.410;2023-04-29T10:08:51;9.03;;;5.03;;
6013;SDS011;3035;49.928;8.410;2023-04-29T10:11:19;9.97;;;4.57;;
6013;SDS011;3035;49.928;8.410;2023-04-29T10:13:48;13.00;;;5.33;;
6013;SDS011;3035;49.928;8.410;2023-04-29T10:19:02;5.20;;;4.67;;
6013;SDS011;3035;49.928;8.410;2023-04-29T10:21:29;6.23;;;4.00;;
6013;SDS011;3035;49.928;8.410;2023-04-29T10:23:58;6.13;;;4.27;;
6013;SDS011;3035;49.928;8.410;2023-04-29T10:26:27;11.63;;;3.80;;
6013;SDS011;3035;49.928;8.410;2023-04-29T10:28:55;6.80;;;4.37;;
6013;SDS011;3035;49.928;8.410;2023-04-29T10:31:25;4.67;;;3.97;;
6013;SDS011;3035;49.928;8.410;2023-04-29T10:33:54;3.90;;;3.33;;
6013;SDS011;3035;49.928;8.410;2023-04-29T10:36:24;3.90;;;3.50;;
6013;SDS011;3035;49.928;8.410;2023-04-29T10:38:53;5.37;;;4.30;;
6013;SDS011;3035;49.928;8.410;2023-04-29T10:41:22;5.70;;;3.83;;
6013;SDS011;3035;49.928;8.410;2023-04-29T10:43:51;5.90;;;4.73;;
6013;SDS011;3035;49.928;8.410;2023-04-29T10:46:21;4.90;;;4.17;;
6013;SDS011;3035;49.928;8.410;2023-04-29T10:48:54;6.87;;;4.10;;
6013;SDS011;3035;49.928;8.410;2023-04-29T10:54:00;5.97;;;3.77;;
6013;SDS011;3035;49.928;8.410;2023-04-29T10:56:35;6.73;;;4.03;;
6013;SDS011;3035;49.928;8.410;2023-04-29T10:59:04;3.87;;;3.33;;
6013;SDS011;3035;49.928;8.410;2023-04-29T11:01:39;4.10;;;3.70;;
6013;SDS011;3035;49.928;8.410;2023-04-29T11:04:09;4.40;;;3.70;;
6013;SDS011;3035;49.928;8.410;2023-04-29T11:06:38;6.37;;;3.10;;
6013;SDS011;3035;49.928;8.410;2023-04-29T11:09:09;4.60;;;4.00;;
6013;SDS011;3035;49.928;8.410;2023-04-29T11:11:42;5.47;;;4.07;;
6013;SDS011;3035;49.928;8.410;2023-04-29T11:14:35;7.33;;;4.37;;
6013;SDS011;3035;49.928;8.410;2023-04-29T11:17:07;4.37;;;3.63;;
6013;SDS011;3035;49.928;8.410;2023-04-29T11:19:35;3.97;;;3.57;;
6013;SDS011;3035;49.928;8.410;2023-04-29T11:22:10;3.57;;;3.23;;
6013;SDS011;3035;49.928;8.410;2023-04-29T11:27:16;4.13;;;2.90;;
6013;SDS011;3035;49.928;8.410;2023-04-29T11:29:45;3.97;;;3.17;;
6013;SDS011;3035;49.928;8.410;2023-04-29T11:32:14;3.60;;;3.30;;
6013;SDS011;3035;49.928;8.410;2023-04-29T11:34:42;4.43;;;3.10;;
6013;SDS011;3035;49.928;8.410;2023-04-29T11:37:10;4.40;;;3.17;;
6013;SDS011;3035;49.928;8.410;2023-04-29T11:39:38;4.97;;;3.37;;
6013;SDS011;3035;49.928;8.410;2023-04-29T11:42:07;3.23;;;2.93;;
6013;SDS011;3035;49.928;8.410;2023-04-29T11:44:35;4.10;;;3.20;;
6013;SDS011;3035;49.928;8.410;2023-04-29T11:47:04;7.00;;;3.60;;
6013;SDS011;3035;49.928;8.410;2023-04-29T11:49:33;3.50;;;3.00;;
6013;SDS011;3035;49.928;8.410;2023-04-29T11:52:01;3.07;;;2.70;;
6013;SDS011;3035;49.928;8.410;2023-04-29T11:54:29;4.50;;;2.10;;
6013;SDS011;3035;49.928;8.410;2023-04-29T11:56:57;2.43;;;2.23;;
6013;SDS011;3035;49.928;8.410;2023-04-29T11:59:25;2.73;;;2.33;;
6013;SDS011;3035;49.928;8.410;2023-04-29T12:01:55;3.13;;;2.50;;
6013;SDS011;3035;49.928;8.410;2023-04-29T12:04:24;3.47;;;2.43;;
6013;SDS011;3035;49.928;8.410;2023-04-29T12:06:55;2.67;;;2.43;;
6013;SDS011;3035;49.928;8.410;2023-04-29T12:09:21;3.80;;;2.83;;
6013;SDS011;3035;49.928;8.410;2023-04-29T12:11:51;3.03;;;2.73;;
6013;SDS011;3035;49.928;8.410;2023-04-29T12:14:19;12.20;;;2.80;;
6013;SDS011;3035;49.928;8.410;2023-04-29T12:16:47;3.13;;;2.63;;
6013;SDS011;3035;49.928;8.410;2023-04-29T12:19:17;5.23;;;2.10;;
6013;SDS011;3035;49.928;8.410;2023-04-29T12:21:47;4.77;;;3.10;;
6013;SDS011;3035;49.928;8.410;2023-04-29T12:24:15;3.20;;;2.90;;
6013;SDS011;3035;49.928;8.410;2023-04-29T12:26:44;7.33;;;2.80;;
6013;SDS011;3035;49.928;8.410;2023-04-29T12:29:12;4.60;;;2.50;;
6013;SDS011;3035;49.928;8.410;2023-04-29T12:31:40;3.37;;;2.53;;
6013;SDS011;3035;49.928;8.410;2023-04-29T12:34:08;4.00;;;2.40;;
6013;SDS011;3035;49.928;8.410;2023-04-29T12:36:40;3.10;;;2.40;;
6013;SDS011;3035;49.928;8.410;2023-04-29T12:39:07;4.97;;;2.70;;
6013;SDS011;3035;49.928;8.410;2023-04-29T12:41:36;3.00;;;2.50;;
6013;SDS011;3035;49.928;8.410;2023-04-29T12:44:06;4.00;;;3.20;;
6013;SDS011;3035;49.928;8.410;2023-04-29T12:46:36;4.07;;;3.33;;
6013;SDS011;3035;49.928;8.410;2023-04-29T12:49:06;9.43;;;2.90;;
6013;SDS011;3035;49.928;8.410;2023-04-29T12:51:34;4.70;;;3.20;;
6013;SDS011;3035;49.928;8.410;2023-04-29T12:54:02;5.00;;;3.37;;
6013;SDS011;3035;49.928;8.410;2023-04-29T12:56:30;7.83;;;2.57;;
6013;SDS011;3035;49.928;8.410;2023-04-29T12:59:05;3.67;;;3.10;;
6013;SDS011;3035;49.928;8.410;2023-04-29T13:01:33;4.53;;;3.10;;
6013;SDS011;3035;49.928;8.410;2023-04-29T13:04:01;7.67;;;3.13;;
6013;SDS011;3035;49.928;8.410;2023-04-29T13:06:31;5.10;;;3.57;;
6013;SDS011;3035;49.928;8.410;2023-04-29T13:08:59;3.30;;;3.00;;
6013;SDS011;3035;49.928;8.410;2023-04-29T13:11:27;3.93;;;2.67;;
6013;SDS011;3035;49.928;8.410;2023-04-29T13:13:56;5.77;;;2.87;;
6013;SDS011;3035;49.928;8.410;2023-04-29T13:16:24;4.97;;;2.90;;
6013;SDS011;3035;49.928;8.410;2023-04-29T13:18:52;5.70;;;3.57;;
6013;SDS011;3035;49.928;8.410;2023-04-29T13:21:21;3.47;;;2.90;;
6013;SDS011;3035;49.928;8.410;2023-04-29T13:23:50;4.40;;;3.13;;
6013;SDS011;3035;49.928;8.410;2023-04-29T13:26:19;3.23;;;2.93;;
6013;SDS011;3035;49.928;8.410;2023-04-29T13:28:47;3.70;;;3.27;;
6013;SDS011;3035;49.928;8.410;2023-04-29T13:31:16;4.83;;;4.03;;
6013;SDS011;3035;49.928;8.410;2023-04-29T13:33:44;7.13;;;3.13;;
6013;SDS011;3035;49.928;8.410;2023-04-29T13:36:13;3.17;;;2.87;;
6013;SDS011;3035;49.928;8.410;2023-04-29T13:38:42;3.47;;;3.07;;
6013;SDS011;3035;49.928;8.410;2023-04-29T13:41:10;4.63;;;3.40;;
6013;SDS011;3035;49.928;8.410;2023-04-29T13:43:38;3.40;;;2.90;;
6013;SDS011;3035;49.928;8.410;2023-04-29T13:46:07;5.03;;;2.80;;
6013;SDS011;3035;49.928;8.410;2023-04-29T13:48:36;3.47;;;3.17;;
6013;SDS011;3035;49.928;8.410;2023-04-29T13:51:05;3.00;;;2.70;;
6013;SDS011;3035;49.928;8.410;2023-04-29T13:53:33;3.67;;;2.63;;
6013;SDS011;3035;49.928;8.410;2023-04-29T13:56:02;3.83;;;2.47;;
6013;SDS011;3035;49.928;8.410;2023-04-29T13:58:31;5.33;;;2.27;;
6013;SDS011;3035;49.928;8.410;2023-04-29T14:01:00;15.20;;;2.93;;
6013;SDS011;3035;49.928;8.410;2023-04-29T14:03:28;3.40;;;2.53;;
6013;SDS011;3035;49.928;8.410;2023-04-29T14:05:56;3.60;;;3.00;;
6013;SDS011;3035;49.928;8.410;2023-04-29T14:08:24;3.10;;;2.80;;
6013;SDS011;3035;49.928;8.410;2023-04-29T14:10:52;2.70;;;2.40;;
6013;SDS011;3035;49.928;8.410;2023-04-29T14:13:21;2.23;;;2.03;;
6013;SDS011;3035;49.928;8.410;2023-04-29T14:15:50;2.50;;;2.30;;
6013;SDS011;3035;49.928;8.410;2023-04-29T14:18:18;3.20;;;2.90;;
6013;SDS011;3035;49.928;8.410;2023-04-29T14:20:47;6.77;;;3.40;;
6013;SDS011;3035;49.928;8.410;2023-04-29T14:23:15;4.53;;;3.13;;
6013;SDS011;3035;49.928;8.410;2023-04-29T14:25:43;4.67;;;3.90;;
6013;SDS011;3035;49.928;8.410;2023-04-29T14:28:11;9.23;;;4.43;;
6013;SDS011;3035;49.928;8.410;2023-04-29T14:30:40;6.80;;;5.10;;
6013;SDS011;3035;49.928;8.410;2023-04-29T14:33:08;6.50;;;4.20;;
6013;SDS011;3035;49.928;8.410;2023-04-29T14:35:36;5.87;;;5.00;;
6013;SDS011;3035;49.928;8.410;2023-04-29T14:38:05;5.83;;;4.60;;
6013;SDS011;3035;49.928;8.410;2023-04-29T14:40:33;7.73;;;4.80;;
6013;SDS011;3035;49.928;8.410;2023-04-29T14:43:02;5.23;;;4.40;;
6013;SDS011;3035;49.928;8.410;2023-04-29T14:45:31;4.93;;;4.43;;
6013;SDS011;3035;49.928;8.410;2023-04-29T14:47:59;6.10;;;4.60;;
6013;SDS011;3035;49.928;8.410;2023-04-29T14:50:27;4.40;;;4.00;;
6013;SDS011;3035;49.928;8.410;2023-04-29T14:52:56;4.97;;;3.63;;
6013;SDS011;3035;49.928;8.410;2023-04-29T14:55:25;6.60;;;4.67;;
6013;SDS011;3035;49.928;8.410;2023-04-29T14:57:54;6.17;;;4.80;;
6013;SDS011;3035;49.928;8.410;2023-04-29T15:00:23;5.97;;;3.90;;
6013;SDS011;3035;49.928;8.410;2023-04-29T15:02:51;5.20;;;4.70;;
6013;SDS011;3035;49.928;8.410;2023-04-29T15:05:21;4.70;;;4.20;;
6013;SDS011;3035;49.928;8.410;2023-04-29T15:07:49;6.80;;;4.30;;
6013;SDS011;3035;49.928;8.410;2023-04-29T15:10:18;5.70;;;4.80;;
6013;SDS011;3035;49.928;8.410;2023-04-29T15:12:46;9.63;;;5.53;;
6013;SDS011;3035;49.928;8.410;2023-04-29T15:15:14;6.23;;;4.53;;
6013;SDS011;3035;49.928;8.410;2023-04-29T15:17:43;4.57;;;4.13;;
6013;SDS011;3035;49.928;8.410;2023-04-29T15:20:11;6.40;;;5.10;;
6013;SDS011;3035;49.928;8.410;2023-04-29T15:22:39;6.20;;;4.60;;
6013;SDS011;3035;49.928;8.410;2023-04-29T15:25:08;6.07;;;4.73;;
6013;SDS011;3035;49.928;8.410;2023-04-29T15:27:36;4.60;;;4.13;;
6013;SDS011;3035;49.928;8.410;2023-04-29T15:30:04;5.07;;;4.13;;
6013;SDS011;3035;49.928;8.410;2023-04-29T15:32:34;5.63;;;4.50;;
6013;SDS011;3035;49.928;8.410;2023-04-29T15:35:03;6.13;;;4.47;;
6013;SDS011;3035;49.928;8.410;2023-04-29T15:37:32;4.10;;;3.70;;
6013;SDS011;3035;49.928;8.410;2023-04-29T15:40:00;5.67;;;4.80;;